Time;durP1;ratioP1;P1;durP2;ratioP2;P2;SDS_P1;SDS_P2;PMS_P1;PMS_P2;Temp;Humidity;BMP_temperature;BMP_pressure;BME280_temperature;BME280_humidity;BME280_pressure;Samples;Min_cycle;Max_cycle;Signal;HPM_P1;HPM_P2
2023/09/02 00:01:31;;;;;;;7.63;3.73;;;;;;;16.95;100.00;100702.50;1458134;89;21570;-81
2023/09/02 00:03:57;;;;;;;5.27;3.40;;;;;;;16.91;100.00;100706.53;1463574;89;21397;-81
2023/09/02 00:06:24;;;;;;;8.50;3.70;;;;;;;16.90;100.00;100703.54;1461804;89;22409;-82
2023/09/02 00:08:50;;;;;;;9.93;3.67;;;;;;;16.92;100.00;100697.52;1461356;89;21390;-82
2023/09/02 00:11:16;;;;;;;5.63;4.00;;;;;;;16.95;100.00;100704.34;1461620;89;22498;-82
2023/09/02 00:13:42;;;;;;;4.83;3.87;;;;;;;16.92;100.00;100694.84;1470479;89;22424;-81
2023/09/02 00:16:08;;;;;;;5.23;3.57;;;;;;;16.90;100.00;100699.53;1473235;89;21515;-81
2023/09/02 00:18:34;;;;;;;8.83;4.73;;;;;;;16.87;100.00;100700.72;1461792;89;21405;-82
2023/09/02 00:21:00;;;;;;;4.93;3.33;;;;;;;16.82;100.00;100702.28;1475308;89;21381;-83
2023/09/02 00:23:26;;;;;;;6.13;3.83;;;;;;;16.80;100.00;100709.64;1466229;89;21375;-81
2023/09/02 00:25:53;;;;;;;7.83;3.50;;;;;;;16.79;100.00;100703.98;1453954;89;21478;-83
2023/09/02 00:28:19;;;;;;;6.80;3.33;;;;;;;16.78;100.00;100696.98;1469667;89;21375;-83
2023/09/02 00:30:45;;;;;;;6.83;3.97;;;;;;;16.78;100.00;100692.97;1460744;89;22808;-80
2023/09/02 00:33:12;;;;;;;6.50;3.57;;;;;;;16.78;100.00;100690.30;1474409;89;21641;-83
2023/09/02 00:35:38;;;;;;;9.03;3.83;;;;;;;16.78;100.00;100690.30;1464594;89;21442;-83
2023/09/02 00:38:04;;;;;;;7.00;3.47;;;;;;;16.74;100.00;100687.11;1465202;89;22358;-82
2023/09/02 00:40:31;;;;;;;7.23;3.20;;;;;;;16.72;100.00;100695.84;1463477;89;21478;-84
2023/09/02 00:43:01;;;;;;;5.70;3.70;;;;;;;16.70;100.00;100694.66;1464958;89;21567;-82
2023/09/02 00:45:27;;;;;;;8.93;3.27;;;;;;;16.69;100.00;100694.35;1455069;89;21308;-84
2023/09/02 00:47:54;;;;;;;7.03;3.50;;;;;;;16.70;100.00;100692.50;1464999;89;22307;-83
2023/09/02 00:50:21;;;;;;;13.00;4.30;;;;;;;16.68;100.00;100686.50;1461702;89;21523;-84
2023/09/02 00:52:49;;;;;;;9.90;3.30;;;;;;;16.66;100.00;100686.70;1464513;89;21464;-85
2023/09/02 00:55:15;;;;;;;10.27;4.47;;;;;;;16.65;100.00;100690.36;1435549;89;21419;-86
2023/09/02 00:57:44;;;;;;;6.77;3.33;;;;;;;16.63;100.00;100689.73;1460546;89;21516;-83
2023/09/02 01:00:13;;;;;;;6.70;3.57;;;;;;;16.59;100.00;100687.08;1453411;89;21441;-84
2023/09/02 01:02:40;;;;;;;5.23;3.77;;;;;;;16.59;100.00;100684.92;1455193;89;22203;-82
2023/09/02 01:05:07;;;;;;;7.17;3.93;;;;;;;16.59;100.00;100687.59;1457184;89;21397;-84
2023/09/02 01:07:34;;;;;;;3.57;3.20;;;;;;;16.60;100.00;100689.23;1456835;89;21361;-84
2023/09/02 01:10:02;;;;;;;6.50;3.93;;;;;;;16.61;100.00;100692.26;1466377;88;21583;-84
2023/09/02 01:12:28;;;;;;;9.33;3.73;;;;;;;16.59;100.00;100688.41;1458457;89;21367;-81
2023/09/02 01:14:54;;;;;;;6.70;3.80;;;;;;;16.58;100.00;100694.78;1467133;89;21508;-83
2023/09/02 01:17:21;;;;;;;9.97;4.20;;;;;;;16.57;100.00;100689.60;1460707;89;21367;-83
2023/09/02 01:19:49;;;;;;;5.73;4.20;;;;;;;16.54;100.00;100685.45;1462777;89;21381;-84
2023/09/02 01:22:44;;;;;;;8.77;3.80;;;;;;;16.53;100.00;100682.97;1460449;89;21553;-82
2023/09/02 01:25:18;;;;;;;9.63;3.73;;;;;;;16.52;100.00;100688.83;1459569;89;22454;-83
2023/09/02 01:27:50;;;;;;;4.07;3.27;;;;;;;16.50;100.00;100688.17;1458675;89;21397;-83
2023/09/02 01:30:20;;;;;;;6.10;3.90;;;;;;;16.52;100.00;100684.00;1452711;89;21426;-80
2023/09/02 01:32:52;;;;;;;10.23;3.75;;;;;;;16.53;100.00;100680.30;1442516;89;21603;-83
2023/09/02 01:35:28;;;;;;;5.67;3.70;;;;;;;16.53;100.00;100679.79;1460859;89;21530;-81
2023/09/02 01:37:57;;;;;;;6.80;4.10;;;;;;;16.49;100.00;100675.83;1461207;89;22483;-83
2023/09/02 01:40:26;;;;;;;9.53;3.87;;;;;;;16.46;100.00;100677.53;1461844;89;22188;-82
2023/09/02 01:42:57;;;;;;;8.60;3.93;;;;;;;16.42;100.00;100685.56;1463831;89;21589;-82
2023/09/02 01:45:34;;;;;;;5.43;3.80;;;;;;;16.39;100.00;100685.41;1457819;89;21403;-82
2023/09/02 01:48:01;;;;;;;5.87;3.87;;;;;;;16.38;100.00;100688.27;1455224;89;21533;-82
2023/09/02 01:50:33;;;;;;;9.53;3.97;;;;;;;16.37;100.00;100686.59;1462921;89;21375;-83
2023/09/02 01:53:00;;;;;;;8.57;4.20;;;;;;;16.32;100.00;100685.81;1444854;89;21534;-83
2023/09/02 01:55:27;;;;;;;6.77;3.67;;;;;;;16.29;100.00;100688.02;1463306;89;21529;-78
2023/09/02 01:57:56;;;;;;;7.97;3.20;;;;;;;16.26;100.00;100681.19;1469920;89;21345;-82
2023/09/02 02:00:22;;;;;;;7.80;3.77;;;;;;;16.23;100.00;100690.89;1468838;89;21474;-82
2023/09/02 02:02:55;;;;;;;5.57;3.53;;;;;;;16.21;100.00;100688.39;1465933;89;21375;-82
2023/09/02 02:05:42;;;;;;;7.10;3.80;;;;;;;16.20;100.00;100684.06;1455202;89;22269;-83
2023/09/02 02:08:17;;;;;;;6.23;4.33;;;;;;;16.21;100.00;100684.38;1459680;89;21454;-83
2023/09/02 02:10:46;;;;;;;8.63;4.30;;;;;;;16.23;100.00;100686.38;1459395;89;22447;-83
2023/09/02 02:13:12;;;;;;;7.10;4.03;;;;;;;16.23;100.00;100689.05;1464759;89;21544;-82
2023/09/02 02:15:38;;;;;;;7.53;4.10;;;;;;;16.23;100.00;100686.89;1438632;89;22433;-79
2023/09/02 02:18:05;;;;;;;6.17;4.03;;;;;;;16.23;100.00;100687.72;1460491;89;21397;-78
2023/09/02 02:20:39;;;;;;;7.30;3.80;;;;;;;16.21;100.00;100690.23;1465556;89;21389;-78
2023/09/02 02:23:07;;;;;;;4.83;3.57;;;;;;;16.19;100.00;100697.08;1465883;89;21456;-79
2023/09/02 02:25:34;;;;;;;5.27;4.10;;;;;;;16.15;100.00;100686.44;1462973;89;22240;-79
2023/09/02 02:28:00;;;;;;;5.83;3.17;;;;;;;16.14;100.00;100688.79;1462219;89;21419;-80
2023/09/02 02:30:26;;;;;;;7.33;4.13;;;;;;;16.13;100.00;100685.77;1465132;89;21360;-81
2023/09/02 02:32:52;;;;;;;6.50;4.27;;;;;;;16.14;100.00;100694.61;1467222;89;21545;-80
2023/09/02 02:35:21;;;;;;;5.93;3.73;;;;;;;16.12;100.00;100687.30;1461496;89;21426;-78
2023/09/02 02:37:48;;;;;;;9.20;4.57;;;;;;;16.11;100.00;100686.47;1472373;89;22343;-81
2023/09/02 02:40:14;;;;;;;7.17;3.97;;;;;;;16.07;100.00;100682.48;1463408;89;22277;-79
2023/09/02 02:42:41;;;;;;;6.00;3.93;;;;;;;16.06;100.00;100688.02;1453357;89;22697;-81
2023/09/02 02:45:08;;;;;;;7.30;4.13;;;;;;;16.03;100.00;100693.20;1461917;89;21316;-81
2023/09/02 02:47:34;;;;;;;11.83;4.30;;;;;;;16.03;100.00;100691.04;1468741;89;22285;-82
2023/09/02 02:50:00;;;;;;;5.73;3.57;;;;;;;16.02;100.00;100687.52;1457546;89;22402;-82
2023/09/02 02:52:26;;;;;;;7.93;3.93;;;;;;;16.02;100.00;100678.17;1461680;89;21382;-84
2023/09/02 02:54:52;;;;;;;7.00;4.13;;;;;;;16.00;100.00;100675.69;1465588;89;21919;-83
2023/09/02 02:57:19;;;;;;;6.67;4.57;;;;;;;15.98;100.00;100676.88;1473072;89;21324;-80
2023/09/02 02:59:45;;;;;;;6.90;4.33;;;;;;;15.94;100.00;100676.88;1468662;89;21562;-81
2023/09/02 03:02:11;;;;;;;10.87;4.93;;;;;;;15.90;100.00;100676.41;1461065;89;21405;-81
2023/09/02 03:04:38;;;;;;;8.57;3.80;;;;;;;15.90;100.00;100674.25;1468217;89;22395;-81
2023/09/02 03:07:04;;;;;;;6.50;4.10;;;;;;;15.92;100.00;100681.59;1461906;89;21429;-81
2023/09/02 03:09:30;;;;;;;7.83;4.97;;;;;;;15.91;100.00;100677.23;1467529;89;21432;-81
2023/09/02 03:11:57;;;;;;;8.10;4.77;;;;;;;15.92;100.00;100677.58;1464418;89;21295;-81
2023/09/02 03:14:25;;;;;;;7.10;4.60;;;;;;;15.90;100.00;100675.59;1459530;89;21441;-80
2023/09/02 03:16:51;;;;;;;10.27;4.40;;;;;;;15.88;100.00;100682.45;1459366;89;21605;-79
2023/09/02 03:19:17;;;;;;;7.20;4.43;;;;;;;15.83;100.00;100682.65;1455176;89;21323;-80
2023/09/02 03:21:43;;;;;;;7.10;4.10;;;;;;;15.81;100.00;100683.31;1467790;89;21367;-81
2023/09/02 03:24:10;;;;;;;7.30;3.97;;;;;;;15.80;100.00;100682.49;1466877;89;21508;-81
2023/09/02 03:26:36;;;;;;;6.57;3.97;;;;;;;15.81;100.00;100681.98;1470170;89;22210;-80
2023/09/02 03:29:02;;;;;;;7.97;4.10;;;;;;;15.81;100.00;100685.98;1459519;89;21330;-80
2023/09/02 03:31:29;;;;;;;5.30;3.90;;;;;;;15.81;100.00;100685.98;1462309;89;21330;-82
2023/09/02 03:33:55;;;;;;;7.43;4.73;;;;;;;15.78;100.00;100689.33;1462104;89;21614;-82
2023/09/02 03:36:21;;;;;;;7.97;5.13;;;;;;;15.74;100.00;100688.03;1458537;89;22166;-81
2023/09/02 03:38:48;;;;;;;13.27;4.47;;;;;;;15.69;100.00;100686.38;1461960;89;21412;-79
2023/09/02 03:41:17;;;;;;;4.77;4.10;;;;;;;15.65;100.00;100687.71;1459334;89;21496;-79
2023/09/02 03:43:47;;;;;;;5.00;3.83;;;;;;;15.62;100.00;100684.54;1456942;89;21486;-79
2023/09/02 03:46:14;;;;;;;7.03;5.03;;;;;;;15.63;100.00;100692.89;1456436;89;21493;-79
2023/09/02 03:48:40;;;;;;;5.20;3.87;;;;;;;15.60;100.00;100694.06;1458059;89;21389;-79
2023/09/02 03:51:12;;;;;;;5.97;4.27;;;;;;;15.57;100.00;100695.24;1444034;89;22316;-78
2023/09/02 03:53:39;;;;;;;5.90;4.20;;;;;;;15.53;100.00;100698.41;1460377;89;21346;-79
2023/09/02 03:56:05;;;;;;;11.23;4.90;;;;;;;15.50;100.00;100698.77;1470099;89;21368;-79
2023/09/02 03:58:31;;;;;;;8.37;4.77;;;;;;;15.46;100.00;100697.46;1459475;89;21463;-79
2023/09/02 04:00:58;;;;;;;7.23;4.67;;;;;;;15.45;100.00;100698.45;1459662;89;22181;-79
2023/09/02 04:03:26;;;;;;;7.23;3.87;;;;;;;15.44;100.00;100696.28;1455750;89;21548;-79
2023/09/02 04:05:53;;;;;;;6.37;4.10;;;;;;;15.45;100.00;100699.30;1456727;89;22288;-82
2023/09/02 04:08:22;;;;;;;7.73;5.03;;;;;;;15.47;100.00;100698.61;1467023;89;21375;-79
2023/09/02 04:10:56;;;;;;;7.60;4.13;;;;;;;15.51;100.00;100703.94;1462436;89;21404;-79
2023/09/02 04:13:25;;;;;;;6.67;5.00;;;;;;;15.55;100.00;100709.24;1466055;89;21500;-79
2023/09/02 04:15:56;;;;;;;9.10;3.97;;;;;;;15.57;100.00;100713.91;1477715;89;21411;-79
2023/09/02 04:18:23;;;;;;;5.90;3.85;;;;;;;15.61;100.00;100718.39;1472547;89;21353;-81
2023/09/02 04:20:50;;;;;;;9.07;3.93;;;;;;;15.67;100.00;100719.03;1462775;89;22448;-78
2023/09/02 04:23:17;;;;;;;7.57;4.10;;;;;;;15.73;100.00;100720.20;1463829;89;22387;-80
2023/09/02 04:25:51;;;;;;;8.93;4.00;;;;;;;15.80;100.00;100721.19;1467146;89;21382;-82
2023/09/02 04:28:18;;;;;;;8.63;4.80;;;;;;;15.86;100.00;100725.00;1462006;89;21523;-78
2023/09/02 04:30:46;;;;;;;6.53;4.30;;;;;;;15.90;100.00;100726.30;1470496;89;21404;-79
2023/09/02 04:33:14;;;;;;;5.67;4.00;;;;;;;15.93;100.00;100725.94;1462519;89;21515;-80
2023/09/02 04:35:43;;;;;;;8.93;5.33;;;;;;;15.93;100.00;100724.10;1445147;89;21404;-81
2023/09/02 04:38:11;;;;;;;5.87;4.03;;;;;;;15.94;100.00;100728.93;1463747;89;21522;-79
2023/09/02 04:40:40;;;;;;;7.87;4.30;;;;;;;15.96;100.00;100726.92;1427876;89;22485;-80
2023/09/02 04:43:08;;;;;;;6.07;3.60;;;;;;;15.99;100.00;100731.91;1462902;89;22277;-80
2023/09/02 04:45:36;;;;;;;6.57;4.03;;;;;;;16.05;100.00;100738.39;1466285;89;21375;-81
2023/09/02 04:48:04;;;;;;;9.10;4.47;;;;;;;16.10;100.00;100735.52;1465882;89;21531;-80
2023/09/02 04:50:32;;;;;;;7.47;4.20;;;;;;;16.16;100.00;100738.81;1464372;89;22320;-78
2023/09/02 04:52:59;;;;;;;5.80;4.43;;;;;;;16.20;100.00;100746.82;1466331;89;21544;-80
2023/09/02 04:55:27;;;;;;;14.00;5.23;;;;;;;16.26;100.00;100749.80;1462714;89;21397;-78
2023/09/02 04:57:54;;;;;;;6.57;3.73;;;;;;;16.27;100.00;100752.28;1459568;89;21375;-79
2023/09/02 05:00:27;;;;;;;7.10;3.73;;;;;;;16.31;100.00;100752.75;1462931;89;21471;-81
2023/09/02 05:02:53;;;;;;;8.40;3.77;;;;;;;16.34;100.00;100760.41;1465553;89;21427;-80
2023/09/02 05:05:21;;;;;;;8.37;3.50;;;;;;;16.39;100.00;100754.03;1455489;89;21353;-83
2023/09/02 05:07:49;;;;;;;7.10;4.33;;;;;;;16.47;100.00;100752.64;1462814;89;21474;-83
2023/09/02 05:10:16;;;;;;;7.93;4.10;;;;;;;16.54;100.00;100746.90;1470321;89;21309;-82
2023/09/02 05:12:43;;;;;;;5.50;3.93;;;;;;;16.61;100.00;100751.05;1463382;89;21516;-82
2023/09/02 05:15:10;;;;;;;9.47;5.03;;;;;;;16.67;100.00;100744.47;1467754;89;21419;-82
2023/09/02 05:17:37;;;;;;;6.07;4.07;;;;;;;16.73;100.00;100748.77;1460909;89;21404;-83
2023/09/02 05:20:05;;;;;;;5.53;3.80;;;;;;;16.76;100.00;100741.73;1462732;89;22158;-82
2023/09/02 05:22:31;;;;;;;6.27;4.10;;;;;;;16.81;100.00;100748.74;1457887;89;21493;-82
2023/09/02 05:24:58;;;;;;;5.87;3.47;;;;;;;16.85;100.00;100744.68;1467330;89;21339;-82
2023/09/02 05:27:24;;;;;;;8.47;4.10;;;;;;;16.92;100.00;100748.31;1435372;89;21471;-83
2023/09/02 05:29:50;;;;;;;11.93;4.00;;;;;;;16.99;100.00;100750.56;1463973;89;22380;-83
2023/09/02 05:32:17;;;;;;;9.10;4.20;;;;;;;17.08;100.00;100750.80;1458931;89;21493;-82
2023/09/02 05:34:44;;;;;;;7.67;3.93;;;;;;;17.17;100.00;100742.70;1463231;89;21493;-82
2023/09/02 05:37:11;;;;;;;7.73;4.73;;;;;;;17.23;100.00;100751.33;1464981;89;22458;-84
2023/09/02 05:39:38;;;;;;;13.27;4.93;;;;;;;17.27;100.00;100751.30;1455362;89;21390;-83
2023/09/02 05:42:04;;;;;;;13.63;5.77;;;;;;;17.29;100.00;100749.26;1459513;89;21560;-83
2023/09/02 05:44:37;;;;;;;18.10;4.70;;;;;;;17.32;100.00;100753.76;1460307;89;21449;-84
2023/09/02 05:47:04;;;;;;;8.60;4.27;;;;;;;17.36;100.00;100759.05;1473412;89;21375;-81
2023/09/02 05:49:30;;;;;;;6.10;3.97;;;;;;;17.42;100.00;100756.14;1461314;89;22344;-82
2023/09/02 05:51:56;;;;;;;6.10;4.00;;;;;;;17.50;100.00;100759.25;1475962;89;21338;-83
2023/09/02 05:54:22;;;;;;;8.23;4.10;;;;;;;17.56;100.00;100757.98;1460427;89;21427;-84
2023/09/02 05:56:49;;;;;;;6.33;4.23;;;;;;;17.64;100.00;100760.27;1461464;89;21435;-84
2023/09/02 05:59:15;;;;;;;7.00;4.23;;;;;;;17.68;100.00;100761.02;1458983;89;21322;-83
2023/09/02 06:01:43;;;;;;;10.47;5.07;;;;;;;17.69;100.00;100762.67;1466790;89;21367;-84
2023/09/02 06:04:09;;;;;;;9.47;3.97;;;;;;;17.73;100.00;100763.98;1458448;89;21529;-84
2023/09/02 06:06:35;;;;;;;6.77;4.80;;;;;;;17.74;100.00;100763.47;1467576;89;21389;-84
2023/09/02 06:09:01;;;;;;;6.97;4.83;;;;;;;17.77;100.00;100765.77;1460403;89;21331;-83
2023/09/02 06:11:31;;;;;;;5.03;4.00;;;;;;;17.80;100.00;100766.77;1460311;89;21404;-81
2023/09/02 06:13:57;;;;;;;6.07;4.20;;;;;;;17.84;100.00;100763.20;1462040;89;21420;-84
2023/09/02 06:16:23;;;;;;;12.65;4.53;;;;;;;17.91;100.00;100762.27;1466460;89;21551;-81
2023/09/02 06:18:50;;;;;;;7.28;4.30;;;;;;;17.95;100.00;100764.06;1437521;89;22313;-79
2023/09/02 06:21:16;;;;;;;7.75;4.17;;;;;;;17.97;100.00;100766.88;1442043;89;21390;-79
2023/09/02 06:23:44;;;;;;;6.28;4.90;;;;;;;18.03;100.00;100760.77;1451758;89;21323;-79
2023/09/02 06:26:11;;;;;;;13.32;4.78;;;;;;;18.09;100.00;100766.39;1472669;89;21537;-79
2023/09/02 06:28:39;;;;;;;8.68;4.25;;;;;;;18.15;100.00;100770.99;1458976;89;21419;-79
2023/09/02 06:31:08;;;;;;;9.80;4.55;;;;;;;18.23;100.00;100770.88;1472771;89;21389;-80
2023/09/02 06:33:35;;;;;;;10.48;4.92;;;;;;;18.29;100.00;100770.12;1437323;89;21434;-79
2023/09/02 06:36:14;;;;;;;12.88;4.22;;;;;;;18.39;100.00;100770.66;1457855;89;21493;-80
2023/09/02 06:38:40;;;;;;;5.28;4.40;;;;;;;18.56;100.00;100773.06;1462469;89;21309;-80
2023/09/02 06:41:15;;;;;;;6.83;4.20;;;;;;;18.76;100.00;100776.81;1458792;89;21367;-80
2023/09/02 06:43:42;;;;;;;10.20;5.15;;;;;;;18.93;100.00;100778.20;1464208;89;22717;-79
2023/09/02 06:46:17;;;;;;;8.98;4.70;;;;;;;19.10;100.00;100773.88;1466697;89;21412;-79
2023/09/02 06:48:44;;;;;;;7.53;4.45;;;;;;;19.20;100.00;100781.08;1462624;89;21500;-79
2023/09/02 06:51:11;;;;;;;9.43;5.25;;;;;;;19.28;100.00;100779.59;1470542;89;22402;-80
2023/09/02 06:53:38;;;;;;;7.67;5.25;;;;;;;19.38;100.00;100773.86;1461789;89;21367;-79
2023/09/02 06:56:08;;;;;;;7.70;4.15;;;;;;;19.46;100.00;100771.55;1465096;89;22550;-79
2023/09/02 06:58:37;;;;;;;7.90;4.75;;;;;;;19.52;100.00;100771.57;1463560;89;21367;-80
2023/09/02 07:01:03;;;;;;;5.50;3.83;;;;;;;19.58;100.00;100776.66;1465552;89;21471;-79
2023/09/02 07:03:30;;;;;;;6.55;4.20;;;;;;;19.60;100.00;100778.65;1460252;89;21410;-80
2023/09/02 07:06:06;;;;;;;5.67;4.30;;;;;;;19.65;100.00;100780.72;1456190;89;22204;-79
2023/09/02 07:08:33;;;;;;;10.88;4.37;;;;;;;19.70;100.00;100785.84;1462720;89;21488;-79
2023/09/02 07:10:59;;;;;;;5.40;3.92;;;;;;;19.78;100.00;100787.02;1454414;89;21633;-79
2023/09/02 07:13:25;;;;;;;7.53;4.55;;;;;;;19.85;100.00;100789.73;1466225;89;21360;-79
2023/09/02 07:16:05;;;;;;;5.15;4.00;;;;;;;19.92;100.00;100792.47;1464452;89;21575;-79
2023/09/02 07:18:33;;;;;;;11.48;4.20;;;;;;;20.02;100.00;100788.88;1459741;89;21500;-78
2023/09/02 07:21:04;;;;;;;8.18;4.42;;;;;;;20.09;100.00;100789.75;1456014;89;22216;-79
2023/09/02 07:23:33;;;;;;;8.63;4.17;;;;;;;20.18;100.00;100795.25;1463545;89;21515;-77
2023/09/02 07:26:01;;;;;;;5.50;3.95;;;;;;;20.27;100.00;100800.75;1459630;89;21242;-79
2023/09/02 07:28:32;;;;;;;11.55;4.80;;;;;;;20.36;100.00;100800.57;1459764;89;21381;-79
2023/09/02 07:31:01;;;;;;;;;;;;;;;20.43;100.00;100802.78;1444899;89;21527;-78
2023/09/02 07:33:28;;;;;;;10.80;4.42;;;;;;;20.50;100.00;100807.63;1458584;89;20909;-79
2023/09/02 07:35:56;;;;;;;7.80;4.87;;;;;;;20.59;100.00;100801.06;1470546;89;21883;-79
2023/09/02 07:38:22;;;;;;;5.17;4.12;;;;;;;20.59;100.00;100801.06;1457403;89;21540;-79
2023/09/02 07:40:48;;;;;;;9.20;3.60;;;;;;;20.69;100.00;100806.06;1469473;89;21375;-77
2023/09/02 07:43:15;;;;;;;7.53;4.47;;;;;;;20.75;100.00;100815.17;1461026;89;21353;-78
2023/09/02 07:45:44;;;;;;;7.92;3.40;;;;;;;20.86;100.00;100818.56;1456922;88;21610;-79
2023/09/02 07:48:10;;;;;;;6.87;3.62;;;;;;;20.96;100.00;100820.34;1458141;89;21375;-78
2023/09/02 07:50:36;;;;;;;12.23;3.90;;;;;;;21.05;100.00;100815.59;1467261;89;22469;-79
2023/09/02 07:53:02;;;;;;;7.15;3.45;;;;;;;21.10;99.60;100826.05;1466998;89;22048;-79
2023/09/02 07:55:28;;;;;;;6.60;4.03;;;;;;;21.15;99.87;100818.18;1464477;89;21485;-79
2023/09/02 07:57:57;;;;;;;11.75;3.90;;;;;;;21.18;99.68;100816.42;1463209;89;22260;-79
2023/09/02 08:00:23;;;;;;;15.98;5.03;;;;;;;21.22;99.24;100814.66;1467040;89;21397;-79
2023/09/02 08:02:49;;;;;;;7.95;4.58;;;;;;;21.28;99.28;100818.67;1457324;89;22394;-80
2023/09/02 08:05:15;;;;;;;12.18;4.55;;;;;;;21.33;98.39;100819.41;1462016;89;21352;-79
2023/09/02 08:07:41;;;;;;;11.90;5.17;;;;;;;21.38;97.80;100827.20;1462257;89;21524;-79
2023/09/02 08:10:08;;;;;;;8.30;4.20;;;;;;;21.42;97.99;100824.91;1460097;89;21382;-80
2023/09/02 08:12:34;;;;;;;6.78;4.40;;;;;;;21.46;98.00;100820.75;1462471;89;21478;-80
2023/09/02 08:15:01;;;;;;;19.52;5.20;;;;;;;21.50;97.93;100824.70;1454976;89;21455;-80
2023/09/02 08:17:27;;;;;;;7.72;4.53;;;;;;;21.63;97.81;100827.34;1455969;89;21390;-79
2023/09/02 08:19:53;;;;;;;6.53;3.87;;;;;;;21.85;97.67;100816.31;1447692;89;21518;-79
2023/09/02 08:22:20;;;;;;;12.40;4.47;;;;;;;22.12;97.79;100822.95;1430447;89;21878;-79
2023/09/02 08:24:47;;;;;;;4.60;3.42;;;;;;;22.36;95.24;100820.08;1462611;89;21537;-79
2023/09/02 08:27:13;;;;;;;4.30;3.27;;;;;;;22.59;94.81;100815.48;1463703;89;21390;-78
2023/09/02 08:29:39;;;;;;;6.78;3.42;;;;;;;22.85;93.09;100820.69;1469948;89;21397;-78
2023/09/02 08:32:05;;;;;;;6.20;4.08;;;;;;;23.09;90.38;100815.55;1459028;89;21413;-76
2023/09/02 08:34:31;;;;;;;3.47;2.55;;;;;;;23.29;89.03;100809.45;1440315;89;21650;-79
2023/09/02 08:36:57;;;;;;;8.45;3.00;;;;;;;23.55;88.76;100815.64;1459722;88;22335;-78
2023/09/02 08:39:23;;;;;;;7.25;3.25;;;;;;;23.78;86.27;100811.77;1462153;89;21367;-79
2023/09/02 08:41:51;;;;;;;6.75;3.30;;;;;;;24.07;84.61;100810.16;1463984;89;21493;-79
2023/09/02 08:44:18;;;;;;;3.40;2.50;;;;;;;24.38;82.76;100806.14;1465303;89;21633;-78
2023/09/02 08:46:47;;;;;;;5.75;3.00;;;;;;;24.69;79.38;100811.33;1462988;89;21449;-79
2023/09/02 08:49:16;;;;;;;6.03;2.90;;;;;;;24.99;77.88;100811.78;1467293;89;21427;-78
2023/09/02 08:51:44;;;;;;;3.45;2.60;;;;;;;25.20;71.96;100811.25;1459843;89;21404;-79
2023/09/02 08:54:12;;;;;;;5.17;2.80;;;;;;;25.26;67.65;100815.41;1463358;89;21560;-78
2023/09/02 08:56:41;;;;;;;4.10;2.80;;;;;;;25.27;64.92;100817.08;1442190;89;21456;-78
2023/09/02 08:59:10;;;;;;;3.72;2.58;;;;;;;25.26;65.36;100822.19;1452338;89;22321;-80
2023/09/02 09:01:44;;;;;;;4.65;3.02;;;;;;;25.20;64.67;100823.44;1468852;89;21375;-80
2023/09/02 09:04:14;;;;;;;6.12;2.25;;;;;;;25.16;64.46;100818.18;1461525;89;21426;-79
2023/09/02 09:06:40;;;;;;;;;;;;;;;25.29;63.57;100823.06;1468920;89;21477;-79
2023/09/02 09:09:10;;;;;;;2.87;2.12;;;;;;;25.44;61.46;100822.08;1468473;89;20277;-78
2023/09/02 09:11:44;;;;;;;9.33;3.77;;;;;;;25.56;61.54;100824.78;1464365;89;21455;-77
2023/09/02 09:14:22;;;;;;;5.60;2.30;;;;;;;25.61;60.74;100816.23;1462781;89;21511;-77
2023/09/02 09:16:52;;;;;;;4.65;2.45;;;;;;;25.70;61.10;100814.52;1460137;89;22483;-76
2023/09/02 09:19:22;;;;;;;4.17;2.33;;;;;;;25.71;57.88;100813.44;1462987;89;21338;-79
2023/09/02 09:21:49;;;;;;;4.33;2.60;;;;;;;25.78;59.46;100819.55;1466294;89;21561;-80
2023/09/02 09:24:15;;;;;;;5.20;2.47;;;;;;;25.91;59.17;100812.55;1441849;89;22532;-77
2023/09/02 09:26:44;;;;;;;8.48;2.65;;;;;;;26.05;57.98;100811.20;1464165;89;21412;-80
2023/09/02 09:29:15;;;;;;;3.08;2.45;;;;;;;26.13;57.61;100811.36;1443745;89;21434;-79
2023/09/02 09:31:42;;;;;;;4.67;2.83;;;;;;;26.27;56.91;100815.98;1443241;89;21614;-79
2023/09/02 09:34:10;;;;;;;6.90;2.37;;;;;;;26.37;55.95;100819.41;1456055;89;21551;-80
2023/09/02 09:36:36;;;;;;;8.28;3.00;;;;;;;26.50;55.70;100814.54;1453368;89;21346;-80
2023/09/02 09:39:08;;;;;;;7.30;2.52;;;;;;;26.64;55.19;100814.22;1457384;89;21464;-80
2023/09/02 09:41:37;;;;;;;4.95;2.17;;;;;;;26.71;52.83;100816.25;1462392;89;21397;-80
2023/09/02 09:44:14;;;;;;;3.55;2.37;;;;;;;26.75;51.54;100813.32;1463782;89;22602;-81
2023/09/02 09:46:52;;;;;;;4.03;2.20;;;;;;;26.93;51.54;100819.89;1454630;89;22241;-80
2023/09/02 09:49:30;;;;;;;2.55;2.15;;;;;;;26.96;51.24;100819.40;1462214;89;21467;-81
2023/09/02 09:52:05;;;;;;;2.85;2.35;;;;;;;26.98;50.63;100821.31;1405406;89;21367;-80
2023/09/02 09:54:52;;;;;;;4.55;2.02;;;;;;;26.95;48.86;100813.66;1456738;89;21499;-80
2023/09/02 09:57:38;;;;;;;4.33;1.87;;;;;;;26.85;49.26;100808.08;1457487;89;21434;-80
2023/09/02 10:00:06;;;;;;;5.58;2.20;;;;;;;26.94;48.50;100812.56;1459743;89;21589;-80
2023/09/02 10:02:33;;;;;;;2.25;1.92;;;;;;;27.08;48.42;100805.73;1465497;89;22321;-80
2023/09/02 10:05:02;;;;;;;7.33;2.22;;;;;;;27.24;46.91;100812.23;1466427;89;21397;-79
2023/09/02 10:07:32;;;;;;;13.27;1.80;;;;;;;27.33;45.59;100812.09;1452699;89;21567;-80
2023/09/02 10:10:04;;;;;;;3.55;1.82;;;;;;;27.36;45.78;100803.98;1462280;89;21664;-80
2023/09/02 10:12:34;;;;;;;5.37;2.00;;;;;;;27.44;43.29;100803.02;1457547;89;21574;-80
2023/09/02 10:15:02;;;;;;;6.95;1.82;;;;;;;27.47;45.24;100799.52;1462119;89;21456;-78
2023/09/02 10:17:31;;;;;;;4.95;2.37;;;;;;;27.54;44.89;100801.53;1455428;89;21486;-79
2023/09/02 10:19:57;;;;;;;5.17;2.20;;;;;;;27.61;44.97;100802.16;1463368;89;21405;-79
2023/09/02 10:22:26;;;;;;;4.58;1.65;;;;;;;27.70;44.29;100788.41;1464257;89;21480;-76
2023/09/02 10:25:17;;;;;;;9.80;1.98;;;;;;;27.78;43.97;100802.11;1457278;89;22394;-80
2023/09/02 10:27:44;;;;;;;2.62;1.80;;;;;;;27.77;43.04;100801.29;1463718;89;21556;-79
2023/09/02 10:30:16;;;;;;;5.97;1.57;;;;;;;27.83;42.12;100789.97;1442170;89;21412;-78
2023/09/02 10:32:56;;;;;;;4.20;1.75;;;;;;;27.80;42.99;100792.66;1437741;89;22417;-78
2023/09/02 10:35:23;;;;;;;2.75;1.90;;;;;;;27.84;43.32;100792.42;1456879;89;21449;-78
2023/09/02 10:38:00;;;;;;;2.25;2.02;;;;;;;27.92;43.81;100795.24;1442510;89;21390;-78
2023/09/02 10:40:41;;;;;;;6.67;1.90;;;;;;;27.97;43.74;100795.84;1440652;89;21390;-78
2023/09/02 10:43:09;;;;;;;3.95;1.80;;;;;;;28.01;42.55;100795.61;1456865;89;21367;-78
2023/09/02 10:45:36;;;;;;;2.12;1.92;;;;;;;28.00;42.37;100793.44;1454881;89;21411;-78
2023/09/02 10:48:04;;;;;;;1.87;1.62;;;;;;;28.14;42.90;100789.78;1461914;89;21566;-79
2023/09/02 10:50:30;;;;;;;3.37;1.90;;;;;;;28.19;42.75;100787.64;1462630;89;21397;-79
2023/09/02 10:52:56;;;;;;;4.30;2.08;;;;;;;28.25;42.29;100792.87;1464812;89;21449;-78
2023/09/02 10:55:23;;;;;;;2.15;1.55;;;;;;;28.30;42.19;100790.21;1463174;89;21538;-79
2023/09/02 10:57:56;;;;;;;1.67;1.50;;;;;;;28.37;41.99;100791.90;1466313;89;21838;-80
2023/09/02 11:00:28;;;;;;;3.30;1.55;;;;;;;28.36;42.07;100782.92;1466394;87;21456;-80
2023/09/02 11:02:58;;;;;;;7.15;2.35;;;;;;;28.42;42.14;100793.34;1469566;89;22556;-80
2023/09/02 11:05:27;;;;;;;3.90;1.57;;;;;;;28.53;41.68;100792.37;1462630;89;22277;-80
2023/09/02 11:07:55;;;;;;;3.12;1.92;;;;;;;28.66;41.63;100791.14;1459759;89;21448;-79
2023/09/02 11:10:24;;;;;;;4.25;1.92;;;;;;;28.65;40.95;100790.84;1466459;89;21359;-80
2023/09/02 11:13:06;;;;;;;2.90;1.47;;;;;;;28.61;41.21;100793.27;1463190;89;21479;-79
2023/09/02 11:15:35;;;;;;;2.83;2.00;;;;;;;28.66;41.71;100791.95;1443384;89;21514;-79
2023/09/02 11:18:34;;;;;;;3.65;1.95;;;;;;;28.67;40.99;100790.86;1469144;89;22878;-80
2023/09/02 11:21:00;;;;;;;3.23;2.40;;;;;;;28.76;41.19;100798.02;1467304;89;21537;-80
2023/09/02 11:23:26;;;;;;;3.58;1.82;;;;;;;28.93;41.42;100800.06;1469547;89;21812;-80
2023/09/02 11:26:05;;;;;;;4.17;2.30;;;;;;;29.05;41.19;100793.09;1460238;89;21581;-80